sensor_id;sensor_type;location;lat;lon;timestamp;P1;durP1;ratioP1;P2;durP2;ratioP2
27839;SDS011;15207;42.182;24.308;2023-10-13T00:00:28;37.30;;;13.30;;
27839;SDS011;15207;42.182;24.308;2023-10-13T00:02:57;24.70;;;11.60;;
27839;SDS011;15207;42.182;24.308;2023-10-13T00:05:26;22.83;;;11.63;;
27839;SDS011;15207;42.182;24.308;2023-10-13T00:07:53;22.00;;;11.25;;
27839;SDS011;15207;42.182;24.308;2023-10-13T00:10:19;14.30;;;10.10;;
27839;SDS011;15207;42.182;24.308;2023-10-13T00:12:44;16.30;;;10.10;;
27839;SDS011;15207;42.182;24.308;2023-10-13T00:15:17;21.83;;;10.48;;
27839;SDS011;15207;42.182;24.308;2023-10-13T00:17:43;16.90;;;10.40;;
27839;SDS011;15207;42.182;24.308;2023-10-13T00:20:09;20.15;;;9.95;;
27839;SDS011;15207;42.182;24.308;2023-10-13T00:22:57;20.25;;;10.35;;
27839;SDS011;15207;42.182;24.308;2023-10-13T00:25:23;22.60;;;9.90;;
27839;SDS011;15207;42.182;24.308;2023-10-13T00:27:52;24.13;;;10.47;;
27839;SDS011;15207;42.182;24.308;2023-10-13T00:30:18;22.50;;;10.05;;
27839;SDS011;15207;42.182;24.308;2023-10-13T00:32:58;21.20;;;9.80;;
27839;SDS011;15207;42.182;24.308;2023-10-13T00:35:27;27.00;;;12.70;;
27839;SDS011;15207;42.182;24.308;2023-10-13T00:40:28;17.30;;;9.70;;
27839;SDS011;15207;42.182;24.308;2023-10-13T00:42:57;17.05;;;10.15;;
27839;SDS011;15207;42.182;24.308;2023-10-13T00:48:23;16.50;;;10.70;;
27839;SDS011;15207;42.182;24.308;2023-10-13T00:50:56;21.80;;;9.80;;
27839;SDS011;15207;42.182;24.308;2023-10-13T00:53:24;24.70;;;9.43;;
27839;SDS011;15207;42.182;24.308;2023-10-13T00:55:51;24.00;;;10.30;;
27839;SDS011;15207;42.182;24.308;2023-10-13T00:58:17;21.50;;;10.45;;
27839;SDS011;15207;42.182;24.308;2023-10-13T01:00:47;21.25;;;10.00;;
27839;SDS011;15207;42.182;24.308;2023-10-13T01:03:21;19.13;;;10.80;;
27839;SDS011;15207;42.182;24.308;2023-10-13T01:05:53;19.50;;;10.10;;
27839;SDS011;15207;42.182;24.308;2023-10-13T01:08:33;19.95;;;11.35;;
27839;SDS011;15207;42.182;24.308;2023-10-13T01:13:31;21.90;;;11.00;;
27839;SDS011;15207;42.182;24.308;2023-10-13T01:16:01;32.95;;;13.85;;
27839;SDS011;15207;42.182;24.308;2023-10-13T01:20:53;23.60;;;11.80;;
27839;SDS011;15207;42.182;24.308;2023-10-13T01:23:24;21.00;;;11.55;;
27839;SDS011;15207;42.182;24.308;2023-10-13T01:28:19;26.70;;;11.70;;
27839;SDS011;15207;42.182;24.308;2023-10-13T01:30:45;23.40;;;11.40;;
27839;SDS011;15207;42.182;24.308;2023-10-13T01:33:17;19.00;;;11.50;;
27839;SDS011;15207;42.182;24.308;2023-10-13T01:35:53;16.50;;;10.10;;
27839;SDS011;15207;42.182;24.308;2023-10-13T01:38:20;18.40;;;10.40;;
27839;SDS011;15207;42.182;24.308;2023-10-13T01:40:46;15.30;;;11.20;;
27839;SDS011;15207;42.182;24.308;2023-10-13T01:43:16;17.85;;;11.10;;
27839;SDS011;15207;42.182;24.308;2023-10-13T01:48:15;24.40;;;9.70;;
27839;SDS011;15207;42.182;24.308;2023-10-13T01:50:42;19.60;;;11.00;;
27839;SDS011;15207;42.182;24.308;2023-10-13T01:53:19;22.00;;;11.40;;
27839;SDS011;15207;42.182;24.308;2023-10-13T01:55:45;24.60;;;11.40;;
27839;SDS011;15207;42.182;24.308;2023-10-13T01:58:11;17.70;;;10.90;;
27839;SDS011;15207;42.182;24.308;2023-10-13T02:00:47;15.60;;;10.10;;
27839;SDS011;15207;42.182;24.308;2023-10-13T02:03:13;16.40;;;10.10;;
27839;SDS011;15207;42.182;24.308;2023-10-13T02:08:19;16.70;;;9.70;;
27839;SDS011;15207;42.182;24.308;2023-10-13T02:10:50;20.00;;;10.20;;
27839;SDS011;15207;42.182;24.308;2023-10-13T02:13:17;22.80;;;9.80;;
27839;SDS011;15207;42.182;24.308;2023-10-13T02:20:46;22.50;;;9.60;;
27839;SDS011;15207;42.182;24.308;2023-10-13T02:23:19;25.20;;;9.70;;
27839;SDS011;15207;42.182;24.308;2023-10-13T02:25:46;19.80;;;9.50;;
27839;SDS011;15207;42.182;24.308;2023-10-13T02:30:46;15.00;;;9.25;;
27839;SDS011;15207;42.182;24.308;2023-10-13T02:33:15;19.90;;;10.30;;
27839;SDS011;15207;42.182;24.308;2023-10-13T02:41:03;14.20;;;10.10;;
27839;SDS011;15207;42.182;24.308;2023-10-13T02:43:32;22.30;;;10.05;;
27839;SDS011;15207;42.182;24.308;2023-10-13T02:48:26;13.43;;;8.27;;
27839;SDS011;15207;42.182;24.308;2023-10-13T02:53:22;13.20;;;7.45;;
27839;SDS011;15207;42.182;24.308;2023-10-13T02:55:56;14.55;;;8.35;;
27839;SDS011;15207;42.182;24.308;2023-10-13T02:58:29;19.70;;;8.60;;
27839;SDS011;15207;42.182;24.308;2023-10-13T03:03:53;14.95;;;7.55;;
27839;SDS011;15207;42.182;24.308;2023-10-13T03:06:20;13.00;;;7.60;;
27839;SDS011;15207;42.182;24.308;2023-10-13T03:08:49;13.90;;;8.20;;
27839;SDS011;15207;42.182;24.308;2023-10-13T03:11:15;15.90;;;8.30;;
27839;SDS011;15207;42.182;24.308;2023-10-13T03:13:46;16.50;;;8.30;;
27839;SDS011;15207;42.182;24.308;2023-10-13T03:18:41;13.00;;;8.45;;
27839;SDS011;15207;42.182;24.308;2023-10-13T03:21:16;11.25;;;7.70;;
27839;SDS011;15207;42.182;24.308;2023-10-13T03:26:32;24.20;;;10.50;;
27839;SDS011;15207;42.182;24.308;2023-10-13T03:29:02;23.95;;;10.45;;
27839;SDS011;15207;42.182;24.308;2023-10-13T03:31:38;21.75;;;10.15;;
27839;SDS011;15207;42.182;24.308;2023-10-13T03:36:30;22.20;;;10.60;;
27839;SDS011;15207;42.182;24.308;2023-10-13T03:39:22;22.00;;;10.20;;
27839;SDS011;15207;42.182;24.308;2023-10-13T03:44:20;19.20;;;9.60;;
27839;SDS011;15207;42.182;24.308;2023-10-13T03:46:47;19.05;;;9.65;;
27839;SDS011;15207;42.182;24.308;2023-10-13T03:49:14;17.50;;;10.00;;
27839;SDS011;15207;42.182;24.308;2023-10-13T03:51:45;26.05;;;12.35;;
27839;SDS011;15207;42.182;24.308;2023-10-13T03:54:13;32.80;;;12.50;;
27839;SDS011;15207;42.182;24.308;2023-10-13T03:56:41;18.60;;;10.40;;
27839;SDS011;15207;42.182;24.308;2023-10-13T03:59:09;20.70;;;10.20;;
27839;SDS011;15207;42.182;24.308;2023-10-13T04:01:43;32.15;;;11.70;;
27839;SDS011;15207;42.182;24.308;2023-10-13T04:07:02;26.40;;;13.10;;
27839;SDS011;15207;42.182;24.308;2023-10-13T04:09:38;30.65;;;13.30;;
27839;SDS011;15207;42.182;24.308;2023-10-13T04:12:07;22.70;;;12.60;;
27839;SDS011;15207;42.182;24.308;2023-10-13T04:14:39;22.15;;;12.35;;
27839;SDS011;15207;42.182;24.308;2023-10-13T04:17:18;24.10;;;11.90;;
27839;SDS011;15207;42.182;24.308;2023-10-13T04:19:53;24.80;;;11.95;;
27839;SDS011;15207;42.182;24.308;2023-10-13T04:28:00;21.00;;;11.40;;
27839;SDS011;15207;42.182;24.308;2023-10-13T04:30:47;30.90;;;11.70;;
27839;SDS011;15207;42.182;24.308;2023-10-13T04:36:12;22.27;;;11.90;;
27839;SDS011;15207;42.182;24.308;2023-10-13T04:38:47;24.40;;;11.80;;
27839;SDS011;15207;42.182;24.308;2023-10-13T04:44:04;21.55;;;9.25;;
27839;SDS011;15207;42.182;24.308;2023-10-13T04:49:24;16.45;;;9.85;;
27839;SDS011;15207;42.182;24.308;2023-10-13T04:52:08;12.90;;;8.70;;
27839;SDS011;15207;42.182;24.308;2023-10-13T04:54:43;20.20;;;9.40;;
27839;SDS011;15207;42.182;24.308;2023-10-13T05:02:35;17.65;;;11.35;;
27839;SDS011;15207;42.182;24.308;2023-10-13T05:05:22;19.05;;;11.10;;
27839;SDS011;15207;42.182;24.308;2023-10-13T05:07:51;20.10;;;10.00;;
27839;SDS011;15207;42.182;24.308;2023-10-13T05:10:36;17.00;;;9.90;;
27839;SDS011;15207;42.182;24.308;2023-10-13T05:13:21;68.30;;;14.90;;
27839;SDS011;15207;42.182;24.308;2023-10-13T05:16:05;294.10;;;33.00;;
27839;SDS011;15207;42.182;24.308;2023-10-13T05:18:49;40.90;;;20.90;;
27839;SDS011;15207;42.182;24.308;2023-10-13T05:21:33;41.60;;;20.40;;
27839;SDS011;15207;42.182;24.308;2023-10-13T05:24:18;31.50;;;15.50;;
27839;SDS011;15207;42.182;24.308;2023-10-13T05:27:02;26.60;;;13.90;;
27839;SDS011;15207;42.182;24.308;2023-10-13T05:29:46;21.00;;;12.60;;
27839;SDS011;15207;42.182;24.308;2023-10-13T05:32:31;26.20;;;13.40;;
27839;SDS011;15207;42.182;24.308;2023-10-13T05:35:16;23.40;;;12.65;;
27839;SDS011;15207;42.182;24.308;2023-10-13T05:38:00;24.00;;;12.00;;
27839;SDS011;15207;42.182;24.308;2023-10-13T05:40:55;24.90;;;13.10;;
27839;SDS011;15207;42.182;24.308;2023-10-13T05:46:27;28.30;;;12.50;;
27839;SDS011;15207;42.182;24.308;2023-10-13T05:49:03;26.60;;;11.60;;
27839;SDS011;15207;42.182;24.308;2023-10-13T05:51:42;22.30;;;10.10;;
27839;SDS011;15207;42.182;24.308;2023-10-13T05:54:13;20.77;;;10.03;;
27839;SDS011;15207;42.182;24.308;2023-10-13T05:56:42;21.40;;;9.25;;
27839;SDS011;15207;42.182;24.308;2023-10-13T05:59:31;44.95;;;10.65;;
27839;SDS011;15207;42.182;24.308;2023-10-13T06:02:18;57.40;;;10.80;;
27839;SDS011;15207;42.182;24.308;2023-10-13T06:05:02;40.70;;;10.70;;
27839;SDS011;15207;42.182;24.308;2023-10-13T06:07:56;21.20;;;8.90;;
27839;SDS011;15207;42.182;24.308;2023-10-13T06:10:42;17.00;;;8.60;;
27839;SDS011;15207;42.182;24.308;2023-10-13T06:13:27;18.30;;;8.60;;
27839;SDS011;15207;42.182;24.308;2023-10-13T06:18:56;24.75;;;11.40;;
27839;SDS011;15207;42.182;24.308;2023-10-13T06:21:41;26.75;;;14.00;;
27839;SDS011;15207;42.182;24.308;2023-10-13T06:24:26;19.60;;;12.30;;
27839;SDS011;15207;42.182;24.308;2023-10-13T06:27:10;24.38;;;11.93;;
27839;SDS011;15207;42.182;24.308;2023-10-13T06:29:54;21.50;;;10.30;;
27839;SDS011;15207;42.182;24.308;2023-10-13T06:32:21;14.60;;;9.40;;
27839;SDS011;15207;42.182;24.308;2023-10-13T06:34:53;22.30;;;9.65;;
27839;SDS011;15207;42.182;24.308;2023-10-13T06:37:44;17.30;;;8.40;;
27839;SDS011;15207;42.182;24.308;2023-10-13T06:40:12;17.30;;;9.53;;
27839;SDS011;15207;42.182;24.308;2023-10-13T06:42:56;19.20;;;8.00;;
27839;SDS011;15207;42.182;24.308;2023-10-13T06:45:37;19.40;;;7.80;;
27839;SDS011;15207;42.182;24.308;2023-10-13T06:48:03;16.90;;;8.70;;
27839;SDS011;15207;42.182;24.308;2023-10-13T06:50:29;21.50;;;8.00;;
27839;SDS011;15207;42.182;24.308;2023-10-13T06:53:04;22.20;;;8.50;;
27839;SDS011;15207;42.182;24.308;2023-10-13T06:55:29;16.70;;;7.30;;
27839;SDS011;15207;42.182;24.308;2023-10-13T06:58:00;15.20;;;7.30;;
27839;SDS011;15207;42.182;24.308;2023-10-13T07:00:27;23.25;;;7.50;;
27839;SDS011;15207;42.182;24.308;2023-10-13T07:03:00;33.75;;;8.00;;
27839;SDS011;15207;42.182;24.308;2023-10-13T07:05:38;12.90;;;6.70;;
27839;SDS011;15207;42.182;24.308;2023-10-13T07:08:07;15.90;;;7.10;;
27839;SDS011;15207;42.182;24.308;2023-10-13T07:10:34;18.70;;;8.20;;
27839;SDS011;15207;42.182;24.308;2023-10-13T07:13:26;15.95;;;8.65;;
27839;SDS011;15207;42.182;24.308;2023-10-13T07:15:53;17.65;;;9.55;;
27839;SDS011;15207;42.182;24.308;2023-10-13T07:18:25;19.10;;;8.40;;
27839;SDS011;15207;42.182;24.308;2023-10-13T07:20:51;14.90;;;7.90;;
27839;SDS011;15207;42.182;24.308;2023-10-13T07:23:22;19.60;;;7.80;;
27839;SDS011;15207;42.182;24.308;2023-10-13T07:25:56;20.85;;;8.20;;
27839;SDS011;15207;42.182;24.308;2023-10-13T07:28:33;17.70;;;7.90;;
27839;SDS011;15207;42.182;24.308;2023-10-13T07:31:04;15.00;;;7.40;;
27839;SDS011;15207;42.182;24.308;2023-10-13T07:33:30;23.25;;;7.80;;
27839;SDS011;15207;42.182;24.308;2023-10-13T07:40:55;19.10;;;8.30;;
27839;SDS011;15207;42.182;24.308;2023-10-13T07:43:25;16.60;;;7.80;;
27839;SDS011;15207;42.182;24.308;2023-10-13T07:45:52;18.00;;;7.40;;
27839;SDS011;15207;42.182;24.308;2023-10-13T07:48:23;14.20;;;7.40;;
27839;SDS011;15207;42.182;24.308;2023-10-13T07:53:28;11.60;;;6.10;;
27839;SDS011;15207;42.182;24.308;2023-10-13T07:58:30;10.10;;;5.50;;
27839;SDS011;15207;42.182;24.308;2023-10-13T08:00:59;13.50;;;5.50;;
27839;SDS011;15207;42.182;24.308;2023-10-13T08:03:34;16.60;;;7.10;;
27839;SDS011;15207;42.182;24.308;2023-10-13T08:06:10;9.10;;;6.20;;
27839;SDS011;15207;42.182;24.308;2023-10-13T08:08:36;13.10;;;5.90;;
27839;SDS011;15207;42.182;24.308;2023-10-13T08:11:06;9.97;;;5.60;;
27839;SDS011;15207;42.182;24.308;2023-10-13T08:19:22;13.50;;;6.20;;
27839;SDS011;15207;42.182;24.308;2023-10-13T08:22:08;10.00;;;6.30;;
27839;SDS011;15207;42.182;24.308;2023-10-13T08:24:46;22.10;;;6.70;;
27839;SDS011;15207;42.182;24.308;2023-10-13T08:27:13;20.60;;;6.80;;
27839;SDS011;15207;42.182;24.308;2023-10-13T08:29:39;21.90;;;6.30;;
27839;SDS011;15207;42.182;24.308;2023-10-13T08:32:34;22.20;;;6.45;;
27839;SDS011;15207;42.182;24.308;2023-10-13T08:35:00;50.55;;;8.95;;
27839;SDS011;15207;42.182;24.308;2023-10-13T08:37:30;16.90;;;6.70;;
27839;SDS011;15207;42.182;24.308;2023-10-13T08:40:12;11.10;;;6.85;;
27839;SDS011;15207;42.182;24.308;2023-10-13T08:42:57;13.60;;;6.70;;
27839;SDS011;15207;42.182;24.308;2023-10-13T08:45:28;21.70;;;6.55;;
27839;SDS011;15207;42.182;24.308;2023-10-13T08:50:33;13.40;;;5.90;;
27839;SDS011;15207;42.182;24.308;2023-10-13T08:58:34;21.80;;;5.90;;
27839;SDS011;15207;42.182;24.308;2023-10-13T09:09:34;14.50;;;5.50;;
27839;SDS011;15207;42.182;24.308;2023-10-13T09:12:12;10.20;;;4.90;;
27839;SDS011;15207;42.182;24.308;2023-10-13T09:19:50;12.70;;;5.30;;
27839;SDS011;15207;42.182;24.308;2023-10-13T09:22:27;14.90;;;4.80;;
27839;SDS011;15207;42.182;24.308;2023-10-13T09:25:03;12.10;;;4.70;;
27839;SDS011;15207;42.182;24.308;2023-10-13T09:27:39;14.75;;;7.50;;
27839;SDS011;15207;42.182;24.308;2023-10-13T09:30:05;14.35;;;6.40;;
27839;SDS011;15207;42.182;24.308;2023-10-13T09:32:46;18.90;;;6.15;;
27839;SDS011;15207;42.182;24.308;2023-10-13T09:35:18;14.10;;;5.70;;
27839;SDS011;15207;42.182;24.308;2023-10-13T09:37:48;13.83;;;6.43;;
27839;SDS011;15207;42.182;24.308;2023-10-13T09:40:16;8.70;;;5.75;;
27839;SDS011;15207;42.182;24.308;2023-10-13T09:43:00;13.30;;;5.50;;
27839;SDS011;15207;42.182;24.308;2023-10-13T09:45:33;11.70;;;6.00;;
27839;SDS011;15207;42.182;24.308;2023-10-13T09:48:11;16.05;;;6.35;;
27839;SDS011;15207;42.182;24.308;2023-10-13T09:50:47;17.80;;;8.00;;
27839;SDS011;15207;42.182;24.308;2023-10-13T09:58:13;15.35;;;8.30;;
27839;SDS011;15207;42.182;24.308;2023-10-13T10:03:45;13.90;;;6.60;;
27839;SDS011;15207;42.182;24.308;2023-10-13T10:17:39;18.90;;;7.10;;
27839;SDS011;15207;42.182;24.308;2023-10-13T10:20:06;21.30;;;7.65;;
27839;SDS011;15207;42.182;24.308;2023-10-13T10:25:09;12.40;;;6.20;;
27839;SDS011;15207;42.182;24.308;2023-10-13T10:32:54;12.80;;;5.60;;
27839;SDS011;15207;42.182;24.308;2023-10-13T10:35:32;12.80;;;6.20;;
27839;SDS011;15207;42.182;24.308;2023-10-13T10:38:11;12.90;;;6.00;;
27839;SDS011;15207;42.182;24.308;2023-10-13T10:43:17;14.15;;;6.45;;
27839;SDS011;15207;42.182;24.308;2023-10-13T10:50:52;16.00;;;5.90;;
27839;SDS011;15207;42.182;24.308;2023-10-13T10:53:22;12.70;;;5.50;;
27839;SDS011;15207;42.182;24.308;2023-10-13T10:56:07;9.50;;;5.35;;
27839;SDS011;15207;42.182;24.308;2023-10-13T10:58:44;13.00;;;5.03;;
27839;SDS011;15207;42.182;24.308;2023-10-13T11:01:13;7.40;;;5.30;;
27839;SDS011;15207;42.182;24.308;2023-10-13T11:06:24;13.20;;;6.10;;
27839;SDS011;15207;42.182;24.308;2023-10-13T11:11:53;10.40;;;5.00;;
27839;SDS011;15207;42.182;24.308;2023-10-13T11:16:48;10.10;;;5.30;;
27839;SDS011;15207;42.182;24.308;2023-10-13T11:25:04;12.40;;;5.15;;
27839;SDS011;15207;42.182;24.308;2023-10-13T11:27:39;17.80;;;5.50;;
27839;SDS011;15207;42.182;24.308;2023-10-13T11:30:10;18.73;;;5.37;;
27839;SDS011;15207;42.182;24.308;2023-10-13T11:35:10;16.50;;;5.40;;
27839;SDS011;15207;42.182;24.308;2023-10-13T11:37:46;10.80;;;5.30;;
27839;SDS011;15207;42.182;24.308;2023-10-13T11:40:21;11.05;;;5.25;;
27839;SDS011;15207;42.182;24.308;2023-10-13T11:43:06;14.10;;;5.40;;
27839;SDS011;15207;42.182;24.308;2023-10-13T11:45:38;16.30;;;5.05;;
27839;SDS011;15207;42.182;24.308;2023-10-13T11:48:18;16.00;;;5.10;;
27839;SDS011;15207;42.182;24.308;2023-10-13T11:50:59;16.95;;;5.95;;
27839;SDS011;15207;42.182;24.308;2023-10-13T11:53:24;44.30;;;8.35;;
27839;SDS011;15207;42.182;24.308;2023-10-13T11:58:18;7.35;;;4.40;;
27839;SDS011;15207;42.182;24.308;2023-10-13T12:00:43;10.60;;;4.35;;
27839;SDS011;15207;42.182;24.308;2023-10-13T12:03:28;14.00;;;4.70;;
27839;SDS011;15207;42.182;24.308;2023-10-13T12:06:12;11.67;;;5.10;;
27839;SDS011;15207;42.182;24.308;2023-10-13T12:08:56;10.30;;;5.80;;
27839;SDS011;15207;42.182;24.308;2023-10-13T12:11:36;20.15;;;5.65;;
27839;SDS011;15207;42.182;24.308;2023-10-13T12:14:04;10.60;;;4.80;;
27839;SDS011;15207;42.182;24.308;2023-10-13T12:16:42;19.40;;;5.40;;
27839;SDS011;15207;42.182;24.308;2023-10-13T12:19:25;11.88;;;4.88;;
27839;SDS011;15207;42.182;24.308;2023-10-13T12:24:20;11.00;;;5.65;;
27839;SDS011;15207;42.182;24.308;2023-10-13T12:27:01;15.50;;;5.40;;
27839;SDS011;15207;42.182;24.308;2023-10-13T12:29:48;15.60;;;5.00;;
27839;SDS011;15207;42.182;24.308;2023-10-13T12:34:47;11.40;;;4.50;;
27839;SDS011;15207;42.182;24.308;2023-10-13T12:37:29;11.55;;;5.15;;
27839;SDS011;15207;42.182;24.308;2023-10-13T12:40:08;7.20;;;4.30;;
27839;SDS011;15207;42.182;24.308;2023-10-13T12:42:55;9.00;;;4.05;;
27839;SDS011;15207;42.182;24.308;2023-10-13T12:45:39;6.60;;;3.80;;
27839;SDS011;15207;42.182;24.308;2023-10-13T12:48:27;8.60;;;3.90;;
27839;SDS011;15207;42.182;24.308;2023-10-13T12:53:52;13.20;;;4.80;;
27839;SDS011;15207;42.182;24.308;2023-10-13T12:56:19;10.40;;;4.20;;
27839;SDS011;15207;42.182;24.308;2023-10-13T12:58:54;24.10;;;5.20;;
27839;SDS011;15207;42.182;24.308;2023-10-13T13:01:21;13.40;;;4.25;;
27839;SDS011;15207;42.182;24.308;2023-10-13T13:03:48;13.20;;;4.10;;
27839;SDS011;15207;42.182;24.308;2023-10-13T13:06:21;12.55;;;4.45;;
27839;SDS011;15207;42.182;24.308;2023-10-13T13:08:51;14.45;;;4.40;;
27839;SDS011;15207;42.182;24.308;2023-10-13T13:11:17;11.50;;;4.50;;
27839;SDS011;15207;42.182;24.308;2023-10-13T13:13:42;9.00;;;4.40;;
27839;SDS011;15207;42.182;24.308;2023-10-13T13:16:09;15.40;;;4.65;;
27839;SDS011;15207;42.182;24.308;2023-10-13T13:18:34;9.90;;;4.30;;
27839;SDS011;15207;42.182;24.308;2023-10-13T13:21:00;15.60;;;4.00;;
27839;SDS011;15207;42.182;24.308;2023-10-13T13:23:27;10.25;;;4.25;;
27839;SDS011;15207;42.182;24.308;2023-10-13T13:25:53;10.30;;;3.60;;
27839;SDS011;15207;42.182;24.308;2023-10-13T13:28:18;11.80;;;4.75;;
27839;SDS011;15207;42.182;24.308;2023-10-13T13:30:44;19.50;;;4.90;;
27839;SDS011;15207;42.182;24.308;2023-10-13T13:33:11;8.65;;;4.25;;
27839;SDS011;15207;42.182;24.308;2023-10-13T13:35:39;10.00;;;4.20;;
27839;SDS011;15207;42.182;24.308;2023-10-13T13:38:08;13.60;;;4.00;;
27839;SDS011;15207;42.182;24.308;2023-10-13T13:40:47;12.15;;;4.60;;
27839;SDS011;15207;42.182;24.308;2023-10-13T13:43:19;8.10;;;3.25;;
27839;SDS011;15207;42.182;24.308;2023-10-13T13:45:59;7.60;;;4.20;;
27839;SDS011;15207;42.182;24.308;2023-10-13T13:48:28;17.60;;;3.70;;
27839;SDS011;15207;42.182;24.308;2023-10-13T13:53:30;10.20;;;4.00;;
27839;SDS011;15207;42.182;24.308;2023-10-13T13:56:02;7.60;;;4.20;;
27839;SDS011;15207;42.182;24.308;2023-10-13T13:58:29;13.90;;;3.60;;
27839;SDS011;15207;42.182;24.308;2023-10-13T14:01:01;15.50;;;3.80;;
27839;SDS011;15207;42.182;24.308;2023-10-13T14:03:37;15.85;;;4.30;;
27839;SDS011;15207;42.182;24.308;2023-10-13T14:06:10;18.10;;;6.35;;
27839;SDS011;15207;42.182;24.308;2023-10-13T14:08:42;21.15;;;4.25;;
27839;SDS011;15207;42.182;24.308;2023-10-13T14:11:09;19.00;;;5.60;;
27839;SDS011;15207;42.182;24.308;2023-10-13T14:16:14;24.30;;;6.40;;
27839;SDS011;15207;42.182;24.308;2023-10-13T14:23:50;31.50;;;7.40;;
27839;SDS011;15207;42.182;24.308;2023-10-13T14:26:20;10.95;;;4.30;;
27839;SDS011;15207;42.182;24.308;2023-10-13T14:28:47;9.30;;;3.40;;
27839;SDS011;15207;42.182;24.308;2023-10-13T14:31:33;6.60;;;2.90;;
27839;SDS011;15207;42.182;24.308;2023-10-13T14:36:27;11.60;;;3.30;;
27839;SDS011;15207;42.182;24.308;2023-10-13T14:38:59;5.90;;;2.70;;
27839;SDS011;15207;42.182;24.308;2023-10-13T14:41:26;11.15;;;3.25;;
27839;SDS011;15207;42.182;24.308;2023-10-13T14:43:51;11.47;;;3.10;;
27839;SDS011;15207;42.182;24.308;2023-10-13T14:46:17;12.50;;;3.30;;
27839;SDS011;15207;42.182;24.308;2023-10-13T14:48:48;7.80;;;3.50;;
27839;SDS011;15207;42.182;24.308;2023-10-13T14:51:14;16.40;;;4.35;;
27839;SDS011;15207;42.182;24.308;2023-10-13T14:53:42;12.37;;;4.20;;
27839;SDS011;15207;42.182;24.308;2023-10-13T14:56:11;10.50;;;4.60;;
27839;SDS011;15207;42.182;24.308;2023-10-13T14:58:40;14.80;;;4.70;;
27839;SDS011;15207;42.182;24.308;2023-10-13T15:01:13;13.80;;;4.15;;
27839;SDS011;15207;42.182;24.308;2023-10-13T15:03:50;15.80;;;4.50;;
27839;SDS011;15207;42.182;24.308;2023-10-13T15:06:23;15.40;;;4.10;;
27839;SDS011;15207;42.182;24.308;2023-10-13T15:08:50;10.35;;;4.35;;
27839;SDS011;15207;42.182;24.308;2023-10-13T15:11:19;13.20;;;4.45;;
27839;SDS011;15207;42.182;24.308;2023-10-13T15:13:45;10.05;;;4.45;;
27839;SDS011;15207;42.182;24.308;2023-10-13T15:16:18;16.10;;;4.40;;
27839;SDS011;15207;42.182;24.308;2023-10-13T15:18:46;26.20;;;5.70;;
27839;SDS011;15207;42.182;24.308;2023-10-13T15:21:23;23.00;;;7.10;;
27839;SDS011;15207;42.182;24.308;2023-10-13T15:23:51;16.45;;;5.32;;
27839;SDS011;15207;42.182;24.308;2023-10-13T15:26:21;21.80;;;7.50;;
27839;SDS011;15207;42.182;24.308;2023-10-13T15:28:48;21.93;;;8.00;;
27839;SDS011;15207;42.182;24.308;2023-10-13T15:31:16;28.40;;;7.90;;
27839;SDS011;15207;42.182;24.308;2023-10-13T15:36:17;26.25;;;6.70;;
27839;SDS011;15207;42.182;24.308;2023-10-13T15:38:45;20.70;;;5.80;;
27839;SDS011;15207;42.182;24.308;2023-10-13T15:41:11;18.65;;;6.75;;
27839;SDS011;15207;42.182;24.308;2023-10-13T15:43:37;21.60;;;6.40;;
27839;SDS011;15207;42.182;24.308;2023-10-13T15:46:09;28.00;;;6.60;;
27839;SDS011;15207;42.182;24.308;2023-10-13T15:48:40;50.30;;;8.00;;
27839;SDS011;15207;42.182;24.308;2023-10-13T15:51:10;29.25;;;7.25;;
27839;SDS011;15207;42.182;24.308;2023-10-13T15:56:05;18.30;;;6.75;;
27839;SDS011;15207;42.182;24.308;2023-10-13T15:58:43;22.00;;;6.50;;
27839;SDS011;15207;42.182;24.308;2023-10-13T16:01:10;23.80;;;6.20;;
27839;SDS011;15207;42.182;24.308;2023-10-13T16:03:43;32.60;;;7.10;;
27839;SDS011;15207;42.182;24.308;2023-10-13T16:06:12;40.10;;;8.10;;
27839;SDS011;15207;42.182;24.308;2023-10-13T16:08:39;32.07;;;8.50;;
27839;SDS011;15207;42.182;24.308;2023-10-13T16:13:38;30.30;;;8.20;;
27839;SDS011;15207;42.182;24.308;2023-10-13T16:16:14;22.00;;;7.95;;
27839;SDS011;15207;42.182;24.308;2023-10-13T16:18:41;27.00;;;7.70;;
27839;SDS011;15207;42.182;24.308;2023-10-13T16:21:12;21.15;;;7.70;;
27839;SDS011;15207;42.182;24.308;2023-10-13T16:23:40;27.45;;;7.10;;
27839;SDS011;15207;42.182;24.308;2023-10-13T16:26:19;19.40;;;6.60;;
27839;SDS011;15207;42.182;24.308;2023-10-13T16:28:50;26.20;;;7.90;;
27839;SDS011;15207;42.182;24.308;2023-10-13T16:31:22;22.15;;;7.95;;
27839;SDS011;15207;42.182;24.308;2023-10-13T16:33:48;21.40;;;7.50;;
27839;SDS011;15207;42.182;24.308;2023-10-13T16:36:14;21.60;;;8.15;;
27839;SDS011;15207;42.182;24.308;2023-10-13T16:41:06;34.75;;;10.00;;
27839;SDS011;15207;42.182;24.308;2023-10-13T16:43:34;37.53;;;8.95;;
27839;SDS011;15207;42.182;24.308;2023-10-13T16:46:03;30.80;;;9.25;;
27839;SDS011;15207;42.182;24.308;2023-10-13T16:48:34;28.10;;;8.90;;
27839;SDS011;15207;42.182;24.308;2023-10-13T16:50:59;32.60;;;8.90;;
27839;SDS011;15207;42.182;24.308;2023-10-13T16:53:25;29.30;;;9.60;;
27839;SDS011;15207;42.182;24.308;2023-10-13T16:55:52;42.20;;;9.90;;
27839;SDS011;15207;42.182;24.308;2023-10-13T16:58:18;45.10;;;14.45;;
27839;SDS011;15207;42.182;24.308;2023-10-13T17:00:44;44.20;;;11.35;;
27839;SDS011;15207;42.182;24.308;2023-10-13T17:03:16;40.20;;;11.10;;
27839;SDS011;15207;42.182;24.308;2023-10-13T17:05:43;27.30;;;10.80;;
27839;SDS011;15207;42.182;24.308;2023-10-13T17:08:14;38.10;;;10.70;;
27839;SDS011;15207;42.182;24.308;2023-10-13T17:10:40;27.90;;;10.50;;
27839;SDS011;15207;42.182;24.308;2023-10-13T17:13:07;30.05;;;10.35;;
27839;SDS011;15207;42.182;24.308;2023-10-13T17:15:34;29.00;;;10.10;;
27839;SDS011;15207;42.182;24.308;2023-10-13T17:18:04;30.30;;;9.50;;
27839;SDS011;15207;42.182;24.308;2023-10-13T17:23:01;16.15;;;7.05;;
27839;SDS011;15207;42.182;24.308;2023-10-13T17:25:27;22.00;;;6.50;;
27839;SDS011;15207;42.182;24.308;2023-10-13T17:30:18;14.70;;;6.15;;
27839;SDS011;15207;42.182;24.308;2023-10-13T17:37:38;29.20;;;9.70;;
27839;SDS011;15207;42.182;24.308;2023-10-13T17:42:40;37.70;;;11.50;;
27839;SDS011;15207;42.182;24.308;2023-10-13T17:45:13;38.65;;;10.70;;
27839;SDS011;15207;42.182;24.308;2023-10-13T17:47:39;36.10;;;12.50;;
27839;SDS011;15207;42.182;24.308;2023-10-13T17:50:06;35.70;;;12.80;;
27839;SDS011;15207;42.182;24.308;2023-10-13T17:52:37;40.65;;;16.15;;
27839;SDS011;15207;42.182;24.308;2023-10-13T17:55:09;51.00;;;15.40;;
27839;SDS011;15207;42.182;24.308;2023-10-13T17:57:35;31.90;;;14.80;;
27839;SDS011;15207;42.182;24.308;2023-10-13T18:00:02;42.95;;;12.65;;
27839;SDS011;15207;42.182;24.308;2023-10-13T18:05:01;31.80;;;13.00;;
27839;SDS011;15207;42.182;24.308;2023-10-13T18:07:26;42.17;;;13.50;;
27839;SDS011;15207;42.182;24.308;2023-10-13T18:09:52;34.50;;;14.10;;
27839;SDS011;15207;42.182;24.308;2023-10-13T18:14:47;37.63;;;12.80;;
27839;SDS011;15207;42.182;24.308;2023-10-13T18:17:12;28.60;;;12.30;;
27839;SDS011;15207;42.182;24.308;2023-10-13T18:19:41;34.10;;;11.80;;
27839;SDS011;15207;42.182;24.308;2023-10-13T18:22:07;29.53;;;11.10;;